createdAt,value
2019-03-13T00:02:10.901Z,60.43
2019-03-13T00:04:41.272Z,60.64
2019-03-13T00:07:10.862Z,61.15
2019-03-13T00:09:41.530Z,61.66
2019-03-13T00:12:11.796Z,63.27
2019-03-13T00:14:41.586Z,64.53
2019-03-13T00:17:10.782Z,65.09
2019-03-13T00:19:40.571Z,67.05
2019-03-13T00:22:11.990Z,68.41
2019-03-13T00:24:41.416Z,69.58
2019-03-13T00:27:11.551Z,71.92
2019-03-13T00:29:41.302Z,72.81
2019-03-13T00:32:11.859Z,74.03
2019-03-13T00:34:41.402Z,75.19
2019-03-13T00:37:11.037Z,75.55
2019-03-13T00:39:40.974Z,75.82
2019-03-13T00:42:10.977Z,76.20
2019-03-13T00:44:40.790Z,76.78
2019-03-13T00:47:10.018Z,76.54
2019-03-13T00:49:40.103Z,76.74
2019-03-13T00:52:09.891Z,78.04
2019-03-13T00:54:39.706Z,78.49
2019-03-13T00:57:10.079Z,78.85
2019-03-13T00:59:40.041Z,79.04
2019-03-13T01:02:14.966Z,79.80
2019-03-13T01:04:51.746Z,79.87
2019-03-13T01:07:21.470Z,79.72
2019-03-13T01:09:51.880Z,79.83
2019-03-13T01:12:21.026Z,79.84
2019-03-13T01:14:50.283Z,79.96
2019-03-13T01:17:21.508Z,79.83
2019-03-13T01:19:51.444Z,80.08
2019-03-13T01:22:21.274Z,80.21
2019-03-13T01:24:51.262Z,80.14
2019-03-13T01:27:20.518Z,80.19
2019-03-13T01:29:51.334Z,80.22
2019-03-13T01:32:34.282Z,80.89
2019-03-13T01:35:14.229Z,81.78
2019-03-13T01:37:44.338Z,82.13
2019-03-13T01:40:14.026Z,84.56
2019-03-13T01:42:43.676Z,86.19
2019-03-13T01:45:13.603Z,87.74
2019-03-13T01:47:43.574Z,88.43
2019-03-13T01:50:13.706Z,89.72
2019-03-13T01:52:44.877Z,90.74
2019-03-13T01:55:14.766Z,90.99
2019-03-13T01:57:44.566Z,90.66
2019-03-13T02:00:14.208Z,88.46
2019-03-13T02:02:43.333Z,86.72
2019-03-13T02:05:14.255Z,86.32
2019-03-13T02:07:44.470Z,85.20
2019-03-13T02:10:13.773Z,84.97
2019-03-13T02:12:43.829Z,85.65
2019-03-13T02:15:14.213Z,85.63
2019-03-13T02:17:43.776Z,85.83
2019-03-13T02:20:13.621Z,86.14
2019-03-13T02:22:44.658Z,86.20
2019-03-13T02:25:15.186Z,86.81
2019-03-13T02:27:45.626Z,87.24
2019-03-13T02:30:15.445Z,86.94
2019-03-13T02:32:44.773Z,87.94
2019-03-13T02:35:14.970Z,88.87
2019-03-13T02:37:44.168Z,89.11
2019-03-13T02:40:13.877Z,90.07
2019-03-13T02:42:43.408Z,90.66
2019-03-13T02:45:13.210Z,90.78
2019-03-13T02:47:43.490Z,90.45
2019-03-13T02:50:13.046Z,90.42
2019-03-13T02:52:43.819Z,90.63
2019-03-13T02:55:18.521Z,90.81
2019-03-13T02:57:48.650Z,90.93
2019-03-13T03:00:19.030Z,91.30
2019-03-13T03:02:54.183Z,91.82
2019-03-13T03:05:24.447Z,91.47
2019-03-13T03:07:54.089Z,91.00
2019-03-13T03:10:23.820Z,90.72
2019-03-13T03:12:53.602Z,90.30
2019-03-13T03:15:23.519Z,90.94
2019-03-13T03:17:52.668Z,91.10
2019-03-13T03:20:22.535Z,90.76
2019-03-13T03:22:52.626Z,90.77
2019-03-13T03:25:22.506Z,91.11
2019-03-13T03:27:51.998Z,91.46
2019-03-13T03:30:22.424Z,92.13
2019-03-13T03:32:52.481Z,92.12
2019-03-13T03:35:22.191Z,92.45
2019-03-13T03:37:52.107Z,92.56
2019-03-13T03:40:23.282Z,92.77
2019-03-13T03:42:51.493Z,92.95
2019-03-13T03:45:21.538Z,93.26
2019-03-13T03:47:50.742Z,92.88
2019-03-13T03:50:21.148Z,92.69
2019-03-13T03:52:50.987Z,92.40
2019-03-13T03:55:20.712Z,91.75
2019-03-13T03:57:50.632Z,91.41
2019-03-13T04:00:20.990Z,91.10
2019-03-13T04:02:50.724Z,90.69
2019-03-13T04:05:20.686Z,90.27
2019-03-13T04:07:50.894Z,89.97
2019-03-13T04:10:21.599Z,89.36
2019-03-13T04:12:51.424Z,88.52
2019-03-13T04:15:21.357Z,89.81
2019-03-13T04:17:51.285Z,92.81
2019-03-13T04:20:20.890Z,95.65
2019-03-13T04:22:50.043Z,97.40
2019-03-13T04:25:29.774Z,98.43
2019-03-13T04:27:59.503Z,98.14
2019-03-13T04:30:29.076Z,98.01
2019-03-13T04:32:58.295Z,97.49
2019-03-13T04:35:28.051Z,96.75
2019-03-13T04:37:57.490Z,96.65
2019-03-13T04:40:27.367Z,95.97
2019-03-13T04:42:56.503Z,95.45
2019-03-13T04:45:27.788Z,95.04
2019-03-13T04:48:02.359Z,94.10
2019-03-13T04:50:36.091Z,93.19
2019-03-13T04:53:05.440Z,92.51
2019-03-13T04:55:34.634Z,91.95
2019-03-13T04:58:04.868Z,91.50
2019-03-13T05:00:34.162Z,90.93
2019-03-13T05:03:03.326Z,90.74
2019-03-13T05:05:48.597Z,90.29
2019-03-13T05:08:30.214Z,89.78
2019-03-13T05:11:16.827Z,89.57
2019-03-13T05:13:46.798Z,89.19
2019-03-13T05:16:16.743Z,88.91
2019-03-13T05:18:46.899Z,88.68
2019-03-13T05:23:37.578Z,88.32
2019-03-13T05:26:07.754Z,88.24
2019-03-13T05:28:36.919Z,87.82
2019-03-13T05:31:06.074Z,87.44
2019-03-13T05:33:36.182Z,87.05
2019-03-13T05:36:10.156Z,86.31
2019-03-13T05:38:39.396Z,86.18
2019-03-13T05:41:09.520Z,85.92
2019-03-13T05:43:39.431Z,85.67
2019-03-13T05:46:09.336Z,85.56
2019-03-13T05:48:38.890Z,85.43
2019-03-13T05:51:08.003Z,85.15
2019-03-13T05:53:37.262Z,85.09
2019-03-13T05:56:06.871Z,84.81
2019-03-13T05:58:36.066Z,84.50
2019-03-13T06:01:05.372Z,84.61
2019-03-13T06:03:34.965Z,84.49
2019-03-13T06:06:04.530Z,84.09
2019-03-13T06:08:34.382Z,84.16
2019-03-13T06:11:04.221Z,83.85
2019-03-13T06:13:33.736Z,84.04
2019-03-13T06:16:03.110Z,84.32
2019-03-13T06:18:32.580Z,84.36
2019-03-13T06:21:01.812Z,84.20
2019-03-13T06:23:31.043Z,83.55
2019-03-13T06:26:01.034Z,83.06
2019-03-13T06:28:30.534Z,83.13
2019-03-13T06:31:00.196Z,82.77
2019-03-13T06:33:29.646Z,82.59
2019-03-13T06:35:58.872Z,81.76
2019-03-13T06:38:28.575Z,80.83
2019-03-13T06:40:58.051Z,80.53
2019-03-13T06:43:27.234Z,80.55
2019-03-13T06:45:56.375Z,80.04
2019-03-13T06:48:25.828Z,79.84
2019-03-13T06:50:55.039Z,79.33
2019-03-13T06:53:24.699Z,79.30
2019-03-13T06:55:55.315Z,78.98
2019-03-13T06:58:38.013Z,78.22
2019-03-13T07:01:14.896Z,78.29
2019-03-13T07:03:49.515Z,77.44
2019-03-13T07:06:29.539Z,76.60
2019-03-13T07:09:11.864Z,76.38
2019-03-13T07:11:49.466Z,76.17
2019-03-13T07:14:24.114Z,76.16
2019-03-13T07:19:01.687Z,75.44
2019-03-13T07:22:06.131Z,75.42
2019-03-13T07:24:47.754Z,75.14
2019-03-13T07:27:21.973Z,73.58
2019-03-13T07:30:11.867Z,73.15
2019-03-13T07:34:47.977Z,72.93
2019-03-13T07:37:23.423Z,72.85
2019-03-13T07:39:57.710Z,74.36
2019-03-13T07:42:36.443Z,73.99
2019-03-13T07:45:26.614Z,74.56
2019-03-13T07:50:02.387Z,74.86
2019-03-13T07:52:50.736Z,73.68
2019-03-13T07:55:29.154Z,73.19
2019-03-13T07:58:19.084Z,73.93
2019-03-13T08:00:52.889Z,74.24
2019-03-13T08:03:29.127Z,75.40
2019-03-13T08:08:08.538Z,74.73
2019-03-13T08:10:46.957Z,75.13
2019-03-13T08:13:32.951Z,76.23
2019-03-13T08:16:11.205Z,76.96
2019-03-13T08:20:53.226Z,76.36
2019-03-13T08:25:29.734Z,72.05
2019-03-13T08:28:21.936Z,72.41
2019-03-13T08:30:59.023Z,72.47
2019-03-13T08:33:39.348Z,74.01
2019-03-13T08:36:13.990Z,75.81
2019-03-13T08:38:50.350Z,76.69
2019-03-13T08:41:38.930Z,76.61
2019-03-13T08:44:16.146Z,75.42
2019-03-13T08:46:53.339Z,73.71
2019-03-13T08:49:58.497Z,72.26
2019-03-13T08:52:39.225Z,68.18
2019-03-13T08:55:13.550Z,67.09
2019-03-13T08:57:47.976Z,66.12
2019-03-13T09:00:26.687Z,63.87
2019-03-13T09:03:05.140Z,64.21
2019-03-13T09:05:43.495Z,63.85
2019-03-13T09:09:19.135Z,64.10
2019-03-13T09:11:56.318Z,66.37
2019-03-13T09:16:38.709Z,67.57
2019-03-13T09:21:17.234Z,68.78
2019-03-13T09:23:52.930Z,68.78
2019-03-13T09:26:32.966Z,66.40
2019-03-13T09:29:13.809Z,65.42
2019-03-13T09:31:48.080Z,65.37
2019-03-13T09:36:23.754Z,64.48
2019-03-13T09:39:31.902Z,63.05
2019-03-13T09:42:06.456Z,62.77
2019-03-13T09:44:46.127Z,63.04
2019-03-13T09:49:27.701Z,63.44
2019-03-13T09:54:06.455Z,63.60
2019-03-13T09:56:43.896Z,63.71
2019-03-13T09:59:19.899Z,64.29
2019-03-13T10:02:57.267Z,64.55
2019-03-13T10:05:47.571Z,64.03
2019-03-13T10:08:22.052Z,62.78
2019-03-13T10:11:02.716Z,61.68
2019-03-13T10:13:41.331Z,61.05
2019-03-13T10:16:21.746Z,62.13
2019-03-13T10:19:39.118Z,61.01
2019-03-13T10:22:21.262Z,59.86
2019-03-13T10:25:16.037Z,59.84
2019-03-13T10:27:52.685Z,59.18
2019-03-13T10:31:32.366Z,58.80
2019-03-13T10:34:36.730Z,57.34
2019-03-13T10:37:45.716Z,55.77
2019-03-13T10:40:21.055Z,54.88
2019-03-13T10:42:56.572Z,55.31
2019-03-13T10:45:30.063Z,54.48
2019-03-13T10:48:06.684Z,55.70
2019-03-13T10:51:16.859Z,56.62
2019-03-13T10:53:52.449Z,54.57
2019-03-13T10:56:26.783Z,53.00
2019-03-13T10:59:05.654Z,52.77
2019-03-13T11:01:42.209Z,51.82
2019-03-13T11:04:19.794Z,51.17
2019-03-13T11:07:10.478Z,51.42
2019-03-13T11:09:47.519Z,49.86
2019-03-13T11:12:38.410Z,50.36
2019-03-13T11:15:13.479Z,51.35
2019-03-13T11:18:20.560Z,51.45
2019-03-13T11:20:56.980Z,51.44
2019-03-13T11:23:33.199Z,51.23
2019-03-13T11:26:15.322Z,50.71
2019-03-13T11:28:48.811Z,50.35
2019-03-13T11:31:23.870Z,49.61
2019-03-13T11:34:12.272Z,50.07
2019-03-13T11:36:46.019Z,50.58
2019-03-13T11:39:26.615Z,51.06
2019-03-13T11:44:02.641Z,51.85
2019-03-13T11:46:38.434Z,52.36
2019-03-13T11:49:13.037Z,52.77
2019-03-13T11:52:06.341Z,53.09
2019-03-13T11:54:42.811Z,53.66
2019-03-13T11:57:19.131Z,54.24
2019-03-13T11:59:56.834Z,54.13
2019-03-13T12:03:34.346Z,53.51
2019-03-13T12:06:22.926Z,53.62
2019-03-13T12:09:01.054Z,52.87
2019-03-13T12:11:35.879Z,51.90
2019-03-13T12:14:25.918Z,52.07
2019-03-13T12:18:04.594Z,51.88
2019-03-13T12:20:39.986Z,52.09
2019-03-13T12:23:18.039Z,52.47
2019-03-13T12:25:54.022Z,52.64
2019-03-13T12:28:29.928Z,53.02
2019-03-13T12:31:04.239Z,53.12
2019-03-13T12:33:54.964Z,52.50
2019-03-13T12:38:30.693Z,51.57
2019-03-13T12:41:07.218Z,53.01
2019-03-13T12:43:53.524Z,52.65
2019-03-13T12:48:31.167Z,51.72
2019-03-13T12:51:14.473Z,52.18
2019-03-13T12:53:55.047Z,52.73
2019-03-13T12:56:30.546Z,52.57
2019-03-13T12:59:08.970Z,52.57
2019-03-13T13:01:45.391Z,52.46
2019-03-13T13:04:19.983Z,52.65
2019-03-13T13:06:57.358Z,52.75
2019-03-13T13:09:32.062Z,52.67
2019-03-13T13:12:06.542Z,52.15
2019-03-13T13:16:43.571Z,51.34
2019-03-13T13:19:12.834Z,52.13
2019-03-13T13:21:42.421Z,52.80
2019-03-13T13:24:12.243Z,53.38
2019-03-13T13:26:45.698Z,53.11
2019-03-13T13:29:15.074Z,53.11
2019-03-13T13:31:45.194Z,53.63
2019-03-13T13:34:14.780Z,53.58
2019-03-13T13:36:43.979Z,53.91
2019-03-13T13:39:14.253Z,53.90
2019-03-13T13:41:43.615Z,53.61
2019-03-13T13:44:13.371Z,53.28
2019-03-13T13:46:44.657Z,53.35
2019-03-13T13:49:14.225Z,53.46
2019-03-13T13:51:43.707Z,53.41
2019-03-13T13:54:18.750Z,53.44
2019-03-13T13:56:48.054Z,53.86
2019-03-13T13:59:17.455Z,53.86
2019-03-13T14:01:46.875Z,54.02
2019-03-13T14:04:16.092Z,54.38
2019-03-13T14:06:46.391Z,54.83
2019-03-13T14:09:16.654Z,54.59
2019-03-13T14:11:47.051Z,54.90
2019-03-13T14:14:16.882Z,55.30
2019-03-13T14:16:46.547Z,55.12
2019-03-13T14:19:15.918Z,55.07
2019-03-13T14:21:45.513Z,55.01
2019-03-13T14:24:17.412Z,55.25
2019-03-13T14:26:44.951Z,54.56
2019-03-13T14:29:15.311Z,55.03
2019-03-13T14:31:45.110Z,55.61
2019-03-13T14:34:15.441Z,56.12
2019-03-13T14:36:46.039Z,56.30
2019-03-13T14:39:18.128Z,56.08
2019-03-13T14:41:49.997Z,56.38
2019-03-13T14:44:19.869Z,57.17
2019-03-13T14:46:49.896Z,57.08
2019-03-13T14:49:19.271Z,57.25
2019-03-13T14:51:48.611Z,57.42
2019-03-13T14:54:18.369Z,57.67
2019-03-13T14:56:48.427Z,57.94
2019-03-13T14:59:17.717Z,58.06
2019-03-13T15:01:47.526Z,58.58
2019-03-13T15:04:16.932Z,59.37
2019-03-13T15:06:48.271Z,59.34
2019-03-13T15:09:18.464Z,59.52
2019-03-13T15:11:48.807Z,59.37
2019-03-13T15:14:18.731Z,59.17
2019-03-13T15:16:48.627Z,58.95
2019-03-13T15:19:18.322Z,59.19
2019-03-13T15:21:47.868Z,58.89
2019-03-13T15:24:17.601Z,58.81
2019-03-13T15:26:47.199Z,59.06
2019-03-13T15:29:16.610Z,59.72
2019-03-13T15:31:46.265Z,60.22
2019-03-13T15:34:15.906Z,61.03
2019-03-13T15:36:45.251Z,61.58
2019-03-13T15:39:14.956Z,61.91
2019-03-13T15:41:45.905Z,62.26
2019-03-13T15:44:15.471Z,62.79
2019-03-13T15:46:45.003Z,63.33
2019-03-13T15:49:14.506Z,63.74
2019-03-13T15:51:44.238Z,64.33
2019-03-13T15:54:13.795Z,64.40
2019-03-13T15:56:43.208Z,64.87
2019-03-13T15:59:12.589Z,64.86
2019-03-13T16:01:42.431Z,65.29
2019-03-13T16:04:11.836Z,64.97
2019-03-13T16:06:42.070Z,64.97
2019-03-13T16:09:11.750Z,64.84
2019-03-13T16:11:41.266Z,64.65
2019-03-13T16:14:10.802Z,64.37
2019-03-13T16:16:40.593Z,64.52
2019-03-13T16:19:10.377Z,64.67
2019-03-13T16:21:39.606Z,65.00
2019-03-13T16:24:09.310Z,65.16
2019-03-13T16:26:38.754Z,65.28
2019-03-13T16:29:08.113Z,65.78
2019-03-13T16:31:37.795Z,66.07
2019-03-13T16:34:07.265Z,65.79
2019-03-13T16:36:40.858Z,65.97
2019-03-13T16:39:10.570Z,66.47
2019-03-13T16:41:40.094Z,66.48
2019-03-13T16:44:09.921Z,66.17
2019-03-13T16:46:39.673Z,66.48
2019-03-13T16:49:08.930Z,67.04
2019-03-13T16:51:38.639Z,67.40
2019-03-13T16:54:08.310Z,68.16
2019-03-13T16:56:37.768Z,69.54
2019-03-13T16:59:07.199Z,70.87
2019-03-13T17:01:36.953Z,72.55
2019-03-13T17:04:06.666Z,74.62
2019-03-13T17:06:35.791Z,76.72
2019-03-13T17:09:10.804Z,78.01
2019-03-13T17:11:41.227Z,79.41
2019-03-13T17:14:10.558Z,80.41
2019-03-13T17:16:40.462Z,80.78
2019-03-13T17:19:09.662Z,81.23
2019-03-13T17:21:39.270Z,81.97
2019-03-13T17:24:08.436Z,82.46
2019-03-13T17:26:37.552Z,82.87
2019-03-13T17:29:07.487Z,83.34
2019-03-13T17:31:36.975Z,83.82
2019-03-13T17:34:08.266Z,84.59
2019-03-13T17:36:38.425Z,84.99
2019-03-13T17:39:08.634Z,84.75
2019-03-13T17:41:38.203Z,85.04
2019-03-13T17:44:08.034Z,84.96
2019-03-13T17:46:37.579Z,85.09
2019-03-13T17:49:07.167Z,85.70
2019-03-13T17:51:37.328Z,85.46
2019-03-13T17:54:06.810Z,85.50
2019-03-13T17:56:36.220Z,85.97
2019-03-13T17:59:06.000Z,86.50
2019-03-13T18:01:36.163Z,86.72
2019-03-13T18:04:05.560Z,87.12
2019-03-13T18:06:35.418Z,87.37
2019-03-13T18:09:05.570Z,87.37
2019-03-13T18:11:34.754Z,87.80
2019-03-13T18:14:04.471Z,88.12
2019-03-13T18:16:33.678Z,88.16
2019-03-13T18:19:03.983Z,88.29
2019-03-13T18:21:34.551Z,88.82
2019-03-13T18:24:04.014Z,89.28
2019-03-13T18:26:33.410Z,89.42
2019-03-13T18:29:04.976Z,89.96
2019-03-13T18:31:34.731Z,92.05
2019-03-13T18:34:04.026Z,93.43
2019-03-13T18:36:33.551Z,95.26
2019-03-13T18:39:02.990Z,96.13
2019-03-13T18:41:32.235Z,96.94
2019-03-13T18:44:01.923Z,97.23
2019-03-13T18:46:31.223Z,97.54
2019-03-13T18:49:00.491Z,98.25
2019-03-13T18:51:29.969Z,98.48
2019-03-13T18:53:59.285Z,99.02
2019-03-13T18:56:28.486Z,99.29
2019-03-13T18:58:57.991Z,99.68
2019-03-13T19:01:27.182Z,100.00
2019-03-13T19:03:56.392Z,100.00
2019-03-13T19:06:25.843Z,100.00
2019-03-13T19:08:55.028Z,100.00
2019-03-13T19:11:24.372Z,100.00
2019-03-13T19:13:53.820Z,100.00
2019-03-13T19:16:23.127Z,100.00
2019-03-13T19:18:52.421Z,100.00
2019-03-13T19:21:22.146Z,100.00
2019-03-13T19:23:52.467Z,100.00
2019-03-13T19:26:21.731Z,100.00
2019-03-13T19:28:51.443Z,100.00
2019-03-13T19:31:20.614Z,100.00
2019-03-13T19:33:49.815Z,99.93
2019-03-13T19:36:19.253Z,99.70
2019-03-13T19:38:48.540Z,99.50
2019-03-13T19:41:17.684Z,99.73
2019-03-13T19:43:47.131Z,100.00
2019-03-13T19:46:16.358Z,100.00
2019-03-13T19:48:45.524Z,100.00
2019-03-13T19:51:15.042Z,100.00
2019-03-13T19:53:44.259Z,100.00
2019-03-13T19:56:13.498Z,100.00
2019-03-13T19:58:42.957Z,100.00
2019-03-13T20:01:12.237Z,100.00
2019-03-13T20:03:54.171Z,100.00
2019-03-13T20:06:11.237Z,100.00
2019-03-13T20:08:40.465Z,100.00
2019-03-13T20:11:09.651Z,100.00
2019-03-13T20:13:39.125Z,100.00
2019-03-13T20:16:08.583Z,100.00
2019-03-13T20:18:38.190Z,100.00
2019-03-13T20:21:08.275Z,100.00
2019-03-13T20:23:37.426Z,100.00
2019-03-13T20:26:06.628Z,100.00
2019-03-13T20:28:36.216Z,100.00
2019-03-13T20:31:05.468Z,100.00
2019-03-13T20:33:34.699Z,100.00
2019-03-13T20:36:04.435Z,100.00
2019-03-13T20:38:33.698Z,100.00
2019-03-13T20:41:02.874Z,100.00
2019-03-13T20:43:32.230Z,100.00
2019-03-13T20:46:01.455Z,100.00
2019-03-13T20:48:30.650Z,100.00
2019-03-13T20:51:00.026Z,100.00
2019-03-13T20:53:29.298Z,100.00
2019-03-13T20:55:58.947Z,100.00
2019-03-13T20:58:28.034Z,100.00
2019-03-13T21:00:57.223Z,100.00
2019-03-13T21:03:26.466Z,100.00
2019-03-13T21:05:56.623Z,100.00
2019-03-13T21:08:25.766Z,100.00
2019-03-13T21:10:55.150Z,100.00
2019-03-13T21:13:24.803Z,100.00
2019-03-13T21:15:54.209Z,100.00
2019-03-13T21:18:23.518Z,100.00
2019-03-13T21:20:52.684Z,100.00
2019-03-13T21:23:21.880Z,100.00
2019-03-13T21:25:51.261Z,100.00
2019-03-13T21:28:21.630Z,100.00
2019-03-13T21:30:50.730Z,100.00
2019-03-13T21:33:20.023Z,100.00
2019-03-13T21:35:49.736Z,100.00
2019-03-13T21:38:18.922Z,100.00
2019-03-13T21:40:48.689Z,100.00
2019-03-13T21:43:18.170Z,100.00
2019-03-13T21:45:47.501Z,100.00
2019-03-13T21:48:16.807Z,100.00
2019-03-13T21:50:46.258Z,100.00
2019-03-13T21:53:15.435Z,100.00
2019-03-13T21:55:44.654Z,100.00
2019-03-13T21:58:14.201Z,100.00
2019-03-13T22:00:43.658Z,100.00
2019-03-13T22:03:12.782Z,100.00
2019-03-13T22:05:42.611Z,100.00
2019-03-13T22:08:12.554Z,100.00
2019-03-13T22:10:41.951Z,100.00
2019-03-13T22:13:11.600Z,100.00
2019-03-13T22:15:41.650Z,100.00
2019-03-13T22:18:11.699Z,100.00
2019-03-13T22:20:41.283Z,100.00
2019-03-13T22:23:10.554Z,100.00
2019-03-13T22:25:40.239Z,100.00
2019-03-13T22:28:09.967Z,100.00
2019-03-13T22:30:39.875Z,100.00
2019-03-13T22:33:09.726Z,100.00
2019-03-13T22:35:40.144Z,100.00
2019-03-13T22:38:09.329Z,100.00
2019-03-13T22:40:39.106Z,100.00
2019-03-13T22:43:08.506Z,100.00
2019-03-13T22:45:39.078Z,100.00
2019-03-13T22:48:09.067Z,100.00
2019-03-13T22:50:39.086Z,100.00
2019-03-13T22:53:09.082Z,100.00
2019-03-13T22:55:41.021Z,100.00
2019-03-13T22:58:09.986Z,100.00
2019-03-13T23:00:48.811Z,100.00
2019-03-13T23:03:18.591Z,100.00
2019-03-13T23:05:48.790Z,100.00
2019-03-13T23:08:17.902Z,100.00
2019-03-13T23:10:47.591Z,100.00
2019-03-13T23:13:17.799Z,100.00
2019-03-13T23:15:47.615Z,100.00
2019-03-13T23:18:18.421Z,100.00
2019-03-13T23:20:47.657Z,100.00
2019-03-13T23:23:16.930Z,100.00
2019-03-13T23:25:47.534Z,100.00
2019-03-13T23:28:17.438Z,100.00
2019-03-13T23:30:47.272Z,100.00
2019-03-13T23:33:17.479Z,100.00
2019-03-13T23:35:47.454Z,99.88
2019-03-13T23:38:17.331Z,99.76
2019-03-13T23:40:47.042Z,99.64
2019-03-13T23:43:17.019Z,99.61
2019-03-13T23:45:47.047Z,99.50
2019-03-13T23:48:16.690Z,99.71
2019-03-13T23:50:47.272Z,99.84
2019-03-13T23:53:16.988Z,99.94
2019-03-13T23:55:46.392Z,100.00
2019-03-13T23:58:16.163Z,100.00
